sensor_id;sensor_type;location;lat;lon;timestamp;P1;durP1;ratioP1;P2;durP2;ratioP2
6007;SDS011;3032;49.484;11.112;2022-11-20T00:00:28;28.27;;;15.80;;
6007;SDS011;3032;49.484;11.112;2022-11-20T00:02:54;25.60;;;15.50;;
6007;SDS011;3032;49.484;11.112;2022-11-20T00:05:19;30.30;;;17.70;;
6007;SDS011;3032;49.484;11.112;2022-11-20T00:07:46;26.90;;;15.85;;
6007;SDS011;3032;49.484;11.112;2022-11-20T00:10:11;28.20;;;15.60;;
6007;SDS011;3032;49.484;11.112;2022-11-20T00:12:37;29.87;;;16.87;;
6007;SDS011;3032;49.484;11.112;2022-11-20T00:15:03;29.77;;;16.67;;
6007;SDS011;3032;49.484;11.112;2022-11-20T00:17:29;30.35;;;17.23;;
6007;SDS011;3032;49.484;11.112;2022-11-20T00:19:55;35.87;;;17.77;;
6007;SDS011;3032;49.484;11.112;2022-11-20T00:22:20;32.23;;;17.27;;
6007;SDS011;3032;49.484;11.112;2022-11-20T00:24:46;32.03;;;16.83;;
6007;SDS011;3032;49.484;11.112;2022-11-20T00:27:11;27.50;;;16.00;;
6007;SDS011;3032;49.484;11.112;2022-11-20T00:29:37;30.40;;;17.20;;
6007;SDS011;3032;49.484;11.112;2022-11-20T00:32:03;35.47;;;19.37;;
6007;SDS011;3032;49.484;11.112;2022-11-20T00:34:28;34.20;;;18.43;;
6007;SDS011;3032;49.484;11.112;2022-11-20T00:36:54;28.00;;;16.80;;
6007;SDS011;3032;49.484;11.112;2022-11-20T00:39:19;29.27;;;16.40;;
6007;SDS011;3032;49.484;11.112;2022-11-20T00:41:45;34.23;;;19.13;;
6007;SDS011;3032;49.484;11.112;2022-11-20T00:44:10;29.13;;;16.97;;
6007;SDS011;3032;49.484;11.112;2022-11-20T00:46:36;31.30;;;17.60;;
6007;SDS011;3032;49.484;11.112;2022-11-20T00:49:02;32.03;;;17.83;;
6007;SDS011;3032;49.484;11.112;2022-11-20T00:51:27;30.00;;;17.60;;
6007;SDS011;3032;49.484;11.112;2022-11-20T00:53:57;32.00;;;18.20;;
6007;SDS011;3032;49.484;11.112;2022-11-20T00:56:24;28.95;;;18.20;;
6007;SDS011;3032;49.484;11.112;2022-11-20T00:58:49;32.58;;;18.73;;
6007;SDS011;3032;49.484;11.112;2022-11-20T01:01:22;34.50;;;18.70;;
6007;SDS011;3032;49.484;11.112;2022-11-20T01:03:51;36.13;;;20.05;;
6007;SDS011;3032;49.484;11.112;2022-11-20T01:06:25;35.55;;;20.05;;
6007;SDS011;3032;49.484;11.112;2022-11-20T01:08:53;38.13;;;20.70;;
6007;SDS011;3032;49.484;11.112;2022-11-20T01:11:22;34.15;;;20.50;;
6007;SDS011;3032;49.484;11.112;2022-11-20T01:13:59;36.03;;;19.98;;
6007;SDS011;3032;49.484;11.112;2022-11-20T01:16:33;37.03;;;18.88;;
6007;SDS011;3032;49.484;11.112;2022-11-20T01:19:02;33.05;;;18.65;;
6007;SDS011;3032;49.484;11.112;2022-11-20T01:21:30;35.30;;;19.20;;
6007;SDS011;3032;49.484;11.112;2022-11-20T01:24:00;33.50;;;19.90;;
6007;SDS011;3032;49.484;11.112;2022-11-20T01:26:27;40.30;;;21.08;;
6007;SDS011;3032;49.484;11.112;2022-11-20T01:28:54;35.67;;;19.63;;
6007;SDS011;3032;49.484;11.112;2022-11-20T01:31:21;40.88;;;20.55;;
6007;SDS011;3032;49.484;11.112;2022-11-20T01:33:48;33.42;;;19.80;;
6007;SDS011;3032;49.484;11.112;2022-11-20T01:36:16;30.45;;;18.30;;
6007;SDS011;3032;49.484;11.112;2022-11-20T01:38:43;32.75;;;18.02;;
6007;SDS011;3032;49.484;11.112;2022-11-20T01:41:10;34.90;;;19.80;;
6007;SDS011;3032;49.484;11.112;2022-11-20T01:43:57;36.45;;;19.33;;
6007;SDS011;3032;49.484;11.112;2022-11-20T01:46:24;34.60;;;18.77;;
6007;SDS011;3032;49.484;11.112;2022-11-20T01:51:43;34.13;;;18.40;;
6007;SDS011;3032;49.484;11.112;2022-11-20T01:54:17;38.78;;;19.63;;
6007;SDS011;3032;49.484;11.112;2022-11-20T01:56:47;42.45;;;21.98;;
6007;SDS011;3032;49.484;11.112;2022-11-20T01:59:15;41.90;;;21.05;;
6007;SDS011;3032;49.484;11.112;2022-11-20T02:01:44;39.00;;;21.70;;
6007;SDS011;3032;49.484;11.112;2022-11-20T02:04:09;44.87;;;21.43;;
6007;SDS011;3032;49.484;11.112;2022-11-20T02:06:45;34.30;;;19.60;;
6007;SDS011;3032;49.484;11.112;2022-11-20T02:09:16;43.13;;;20.45;;
6007;SDS011;3032;49.484;11.112;2022-11-20T02:11:42;37.00;;;21.10;;
6007;SDS011;3032;49.484;11.112;2022-11-20T02:14:07;38.63;;;19.87;;
6007;SDS011;3032;49.484;11.112;2022-11-20T02:16:35;30.83;;;18.08;;
6007;SDS011;3032;49.484;11.112;2022-11-20T02:19:05;35.83;;;19.20;;
6007;SDS011;3032;49.484;11.112;2022-11-20T02:21:40;39.13;;;19.58;;
6007;SDS011;3032;49.484;11.112;2022-11-20T02:26:59;40.80;;;20.60;;
6007;SDS011;3032;49.484;11.112;2022-11-20T02:29:42;42.30;;;20.58;;
6007;SDS011;3032;49.484;11.112;2022-11-20T02:32:30;37.70;;;20.15;;
6007;SDS011;3032;49.484;11.112;2022-11-20T02:34:57;47.22;;;22.35;;
6007;SDS011;3032;49.484;11.112;2022-11-20T02:37:32;45.23;;;21.57;;
6007;SDS011;3032;49.484;11.112;2022-11-20T02:40:01;50.65;;;23.17;;
6007;SDS011;3032;49.484;11.112;2022-11-20T02:42:26;48.40;;;22.40;;
6007;SDS011;3032;49.484;11.112;2022-11-20T02:44:52;44.30;;;22.20;;
6007;SDS011;3032;49.484;11.112;2022-11-20T02:47:18;38.80;;;20.50;;
6007;SDS011;3032;49.484;11.112;2022-11-20T02:49:43;40.60;;;19.47;;
6007;SDS011;3032;49.484;11.112;2022-11-20T02:52:09;36.73;;;19.23;;
6007;SDS011;3032;49.484;11.112;2022-11-20T02:54:34;46.50;;;20.23;;
6007;SDS011;3032;49.484;11.112;2022-11-20T02:57:00;52.70;;;23.40;;
6007;SDS011;3032;49.484;11.112;2022-11-20T02:59:25;58.27;;;24.57;;
6007;SDS011;3032;49.484;11.112;2022-11-20T03:01:51;60.77;;;24.20;;
6007;SDS011;3032;49.484;11.112;2022-11-20T03:04:16;58.63;;;24.87;;
6007;SDS011;3032;49.484;11.112;2022-11-20T03:06:42;51.33;;;23.73;;
6007;SDS011;3032;49.484;11.112;2022-11-20T03:09:08;49.47;;;22.37;;
6007;SDS011;3032;49.484;11.112;2022-11-20T03:11:34;40.90;;;20.33;;
6007;SDS011;3032;49.484;11.112;2022-11-20T03:14:03;56.07;;;23.10;;
6007;SDS011;3032;49.484;11.112;2022-11-20T03:16:30;55.80;;;23.90;;
6007;SDS011;3032;49.484;11.112;2022-11-20T03:18:56;52.25;;;24.40;;
6007;SDS011;3032;49.484;11.112;2022-11-20T03:21:22;51.87;;;24.20;;
6007;SDS011;3032;49.484;11.112;2022-11-20T03:23:47;62.90;;;25.50;;
6007;SDS011;3032;49.484;11.112;2022-11-20T03:26:14;44.03;;;21.43;;
6007;SDS011;3032;49.484;11.112;2022-11-20T03:28:46;49.70;;;21.98;;
6007;SDS011;3032;49.484;11.112;2022-11-20T03:31:14;42.72;;;22.02;;
6007;SDS011;3032;49.484;11.112;2022-11-20T03:33:41;60.45;;;23.75;;
6007;SDS011;3032;49.484;11.112;2022-11-20T03:36:08;53.03;;;23.33;;
6007;SDS011;3032;49.484;11.112;2022-11-20T03:38:35;58.92;;;24.63;;
6007;SDS011;3032;49.484;11.112;2022-11-20T03:41:09;48.80;;;21.15;;
6007;SDS011;3032;49.484;11.112;2022-11-20T03:43:36;53.50;;;21.98;;
6007;SDS011;3032;49.484;11.112;2022-11-20T03:46:02;44.40;;;21.13;;
6007;SDS011;3032;49.484;11.112;2022-11-20T03:48:29;51.67;;;23.50;;
6007;SDS011;3032;49.484;11.112;2022-11-20T03:51:11;51.63;;;22.88;;
6007;SDS011;3032;49.484;11.112;2022-11-20T03:53:39;40.65;;;21.70;;
6007;SDS011;3032;49.484;11.112;2022-11-20T03:56:06;61.58;;;24.38;;
6007;SDS011;3032;49.484;11.112;2022-11-20T03:58:34;63.22;;;24.65;;
6007;SDS011;3032;49.484;11.112;2022-11-20T04:01:09;58.42;;;23.67;;
6007;SDS011;3032;49.484;11.112;2022-11-20T04:03:42;61.65;;;23.00;;
6007;SDS011;3032;49.484;11.112;2022-11-20T04:06:09;53.63;;;22.75;;
6007;SDS011;3032;49.484;11.112;2022-11-20T04:08:39;55.85;;;23.20;;
6007;SDS011;3032;49.484;11.112;2022-11-20T04:11:15;52.42;;;20.58;;
6007;SDS011;3032;49.484;11.112;2022-11-20T04:13:46;46.33;;;20.63;;
6007;SDS011;3032;49.484;11.112;2022-11-20T04:16:19;59.25;;;23.23;;
6007;SDS011;3032;49.484;11.112;2022-11-20T04:18:46;47.55;;;21.08;;
6007;SDS011;3032;49.484;11.112;2022-11-20T04:21:12;67.07;;;24.77;;
6007;SDS011;3032;49.484;11.112;2022-11-20T04:23:38;60.23;;;24.87;;
6007;SDS011;3032;49.484;11.112;2022-11-20T04:26:04;54.73;;;23.70;;
6007;SDS011;3032;49.484;11.112;2022-11-20T04:28:31;59.13;;;22.88;;
6007;SDS011;3032;49.484;11.112;2022-11-20T04:33:33;40.05;;;19.83;;
6007;SDS011;3032;49.484;11.112;2022-11-20T04:36:01;48.45;;;21.70;;
6007;SDS011;3032;49.484;11.112;2022-11-20T04:38:33;48.35;;;20.92;;
6007;SDS011;3032;49.484;11.112;2022-11-20T04:40:59;49.33;;;22.50;;
6007;SDS011;3032;49.484;11.112;2022-11-20T04:43:26;64.53;;;23.83;;
6007;SDS011;3032;49.484;11.112;2022-11-20T04:45:56;35.20;;;18.10;;
6007;SDS011;3032;49.484;11.112;2022-11-20T04:48:22;39.15;;;19.67;;
6007;SDS011;3032;49.484;11.112;2022-11-20T04:50:48;34.92;;;18.30;;
6007;SDS011;3032;49.484;11.112;2022-11-20T04:53:14;34.20;;;17.00;;
6007;SDS011;3032;49.484;11.112;2022-11-20T04:55:40;40.60;;;19.50;;
6007;SDS011;3032;49.484;11.112;2022-11-20T04:58:05;33.97;;;18.80;;
6007;SDS011;3032;49.484;11.112;2022-11-20T05:00:31;38.45;;;17.92;;
6007;SDS011;3032;49.484;11.112;2022-11-20T05:02:57;45.90;;;22.20;;
6007;SDS011;3032;49.484;11.112;2022-11-20T05:05:23;48.83;;;21.40;;
6007;SDS011;3032;49.484;11.112;2022-11-20T05:07:48;58.40;;;23.43;;
6007;SDS011;3032;49.484;11.112;2022-11-20T05:10:14;55.53;;;23.50;;
6007;SDS011;3032;49.484;11.112;2022-11-20T05:12:40;44.40;;;21.60;;
6007;SDS011;3032;49.484;11.112;2022-11-20T05:15:05;52.23;;;22.73;;
6007;SDS011;3032;49.484;11.112;2022-11-20T05:17:31;57.00;;;24.00;;
6007;SDS011;3032;49.484;11.112;2022-11-20T05:19:57;48.73;;;23.03;;
6007;SDS011;3032;49.484;11.112;2022-11-20T05:22:23;69.47;;;25.63;;
6007;SDS011;3032;49.484;11.112;2022-11-20T05:24:48;86.40;;;30.20;;
6007;SDS011;3032;49.484;11.112;2022-11-20T05:27:14;61.10;;;23.50;;
6007;SDS011;3032;49.484;11.112;2022-11-20T05:29:39;61.47;;;24.80;;
6007;SDS011;3032;49.484;11.112;2022-11-20T05:32:05;56.97;;;23.50;;
6007;SDS011;3032;49.484;11.112;2022-11-20T05:34:33;39.97;;;20.27;;
6007;SDS011;3032;49.484;11.112;2022-11-20T05:36:59;70.87;;;26.10;;
6007;SDS011;3032;49.484;11.112;2022-11-20T05:39:24;54.53;;;22.17;;
6007;SDS011;3032;49.484;11.112;2022-11-20T05:41:50;50.00;;;23.00;;
6007;SDS011;3032;49.484;11.112;2022-11-20T05:44:36;41.00;;;20.50;;
6007;SDS011;3032;49.484;11.112;2022-11-20T05:47:01;44.73;;;21.23;;
6007;SDS011;3032;49.484;11.112;2022-11-20T05:49:27;31.77;;;17.53;;
6007;SDS011;3032;49.484;11.112;2022-11-20T05:51:52;37.23;;;19.00;;
6007;SDS011;3032;49.484;11.112;2022-11-20T05:54:18;36.47;;;19.07;;
6007;SDS011;3032;49.484;11.112;2022-11-20T05:56:43;52.13;;;20.93;;
6007;SDS011;3032;49.484;11.112;2022-11-20T05:59:09;41.67;;;20.23;;
6007;SDS011;3032;49.484;11.112;2022-11-20T06:01:34;39.57;;;19.87;;
6007;SDS011;3032;49.484;11.112;2022-11-20T06:04:01;48.72;;;20.52;;
6007;SDS011;3032;49.484;11.112;2022-11-20T06:06:26;39.77;;;19.93;;
6007;SDS011;3032;49.484;11.112;2022-11-20T06:08:52;44.53;;;20.57;;
6007;SDS011;3032;49.484;11.112;2022-11-20T06:11:19;53.35;;;21.98;;
6007;SDS011;3032;49.484;11.112;2022-11-20T06:13:45;39.40;;;18.70;;
6007;SDS011;3032;49.484;11.112;2022-11-20T06:16:11;46.42;;;20.15;;
6007;SDS011;3032;49.484;11.112;2022-11-20T06:18:39;51.50;;;21.60;;
6007;SDS011;3032;49.484;11.112;2022-11-20T06:21:06;56.83;;;23.00;;
6007;SDS011;3032;49.484;11.112;2022-11-20T06:23:34;36.70;;;18.88;;
6007;SDS011;3032;49.484;11.112;2022-11-20T06:26:01;50.03;;;21.10;;
6007;SDS011;3032;49.484;11.112;2022-11-20T06:28:28;51.00;;;22.27;;
6007;SDS011;3032;49.484;11.112;2022-11-20T06:30:53;55.33;;;22.07;;
6007;SDS011;3032;49.484;11.112;2022-11-20T06:33:19;71.40;;;25.60;;
6007;SDS011;3032;49.484;11.112;2022-11-20T06:35:44;47.80;;;21.93;;
6007;SDS011;3032;49.484;11.112;2022-11-20T06:38:10;66.00;;;24.30;;
6007;SDS011;3032;49.484;11.112;2022-11-20T06:40:35;71.00;;;25.00;;
6007;SDS011;3032;49.484;11.112;2022-11-20T06:43:04;46.33;;;21.02;;
6007;SDS011;3032;49.484;11.112;2022-11-20T06:45:29;58.23;;;23.13;;
6007;SDS011;3032;49.484;11.112;2022-11-20T06:47:56;46.73;;;20.37;;
6007;SDS011;3032;49.484;11.112;2022-11-20T06:50:22;62.47;;;23.65;;
6007;SDS011;3032;49.484;11.112;2022-11-20T06:52:48;79.63;;;27.03;;
6007;SDS011;3032;49.484;11.112;2022-11-20T06:55:13;47.83;;;22.40;;
6007;SDS011;3032;49.484;11.112;2022-11-20T06:57:39;38.67;;;18.50;;
6007;SDS011;3032;49.484;11.112;2022-11-20T07:00:05;75.40;;;27.03;;
6007;SDS011;3032;49.484;11.112;2022-11-20T07:02:31;65.93;;;22.35;;
6007;SDS011;3032;49.484;11.112;2022-11-20T07:04:57;49.37;;;21.00;;
6007;SDS011;3032;49.484;11.112;2022-11-20T07:07:22;60.87;;;21.97;;
6007;SDS011;3032;49.484;11.112;2022-11-20T07:09:48;52.03;;;22.53;;
6007;SDS011;3032;49.484;11.112;2022-11-20T07:12:13;43.50;;;20.07;;
6007;SDS011;3032;49.484;11.112;2022-11-20T07:14:39;33.63;;;17.57;;
6007;SDS011;3032;49.484;11.112;2022-11-20T07:17:04;49.50;;;20.40;;
6007;SDS011;3032;49.484;11.112;2022-11-20T07:19:30;53.77;;;22.20;;
6007;SDS011;3032;49.484;11.112;2022-11-20T07:21:55;42.00;;;19.40;;
6007;SDS011;3032;49.484;11.112;2022-11-20T07:24:21;47.83;;;21.23;;
6007;SDS011;3032;49.484;11.112;2022-11-20T07:26:46;46.67;;;19.63;;
6007;SDS011;3032;49.484;11.112;2022-11-20T07:29:14;35.95;;;18.05;;
6007;SDS011;3032;49.484;11.112;2022-11-20T07:31:40;65.13;;;23.33;;
6007;SDS011;3032;49.484;11.112;2022-11-20T07:34:06;52.70;;;22.67;;
6007;SDS011;3032;49.484;11.112;2022-11-20T07:36:32;42.20;;;19.30;;
6007;SDS011;3032;49.484;11.112;2022-11-20T07:38:57;41.33;;;18.80;;
6007;SDS011;3032;49.484;11.112;2022-11-20T07:41:23;51.73;;;23.00;;
6007;SDS011;3032;49.484;11.112;2022-11-20T07:43:48;35.73;;;18.00;;
6007;SDS011;3032;49.484;11.112;2022-11-20T07:46:14;56.77;;;22.40;;
6007;SDS011;3032;49.484;11.112;2022-11-20T07:48:39;50.60;;;20.83;;
6007;SDS011;3032;49.484;11.112;2022-11-20T07:51:05;37.60;;;19.43;;
6007;SDS011;3032;49.484;11.112;2022-11-20T07:53:31;42.93;;;20.90;;
6007;SDS011;3032;49.484;11.112;2022-11-20T07:56:00;40.40;;;20.30;;
6007;SDS011;3032;49.484;11.112;2022-11-20T07:58:26;47.60;;;20.88;;
6007;SDS011;3032;49.484;11.112;2022-11-20T08:00:53;43.45;;;21.30;;
6007;SDS011;3032;49.484;11.112;2022-11-20T08:03:19;36.63;;;18.43;;
6007;SDS011;3032;49.484;11.112;2022-11-20T08:05:44;38.17;;;19.83;;
6007;SDS011;3032;49.484;11.112;2022-11-20T08:08:10;32.40;;;17.70;;
6007;SDS011;3032;49.484;11.112;2022-11-20T08:10:36;41.13;;;18.90;;
6007;SDS011;3032;49.484;11.112;2022-11-20T08:13:01;48.00;;;20.40;;
6007;SDS011;3032;49.484;11.112;2022-11-20T08:15:49;33.47;;;17.10;;
6007;SDS011;3032;49.484;11.112;2022-11-20T08:18:16;41.72;;;18.73;;
6007;SDS011;3032;49.484;11.112;2022-11-20T08:20:42;42.65;;;19.10;;
6007;SDS011;3032;49.484;11.112;2022-11-20T08:23:08;28.52;;;17.17;;
6007;SDS011;3032;49.484;11.112;2022-11-20T08:25:34;41.47;;;19.83;;
6007;SDS011;3032;49.484;11.112;2022-11-20T08:28:02;35.60;;;17.38;;
6007;SDS011;3032;49.484;11.112;2022-11-20T08:30:30;34.35;;;18.23;;
6007;SDS011;3032;49.484;11.112;2022-11-20T08:33:00;30.23;;;16.42;;
6007;SDS011;3032;49.484;11.112;2022-11-20T08:35:33;40.40;;;19.60;;
6007;SDS011;3032;49.484;11.112;2022-11-20T08:38:01;37.67;;;18.63;;
6007;SDS011;3032;49.484;11.112;2022-11-20T08:40:27;43.72;;;20.75;;
6007;SDS011;3032;49.484;11.112;2022-11-20T08:42:53;27.87;;;15.30;;
6007;SDS011;3032;49.484;11.112;2022-11-20T08:45:19;35.77;;;17.20;;
6007;SDS011;3032;49.484;11.112;2022-11-20T08:47:45;26.35;;;14.90;;
6007;SDS011;3032;49.484;11.112;2022-11-20T08:50:11;45.07;;;19.90;;
6007;SDS011;3032;49.484;11.112;2022-11-20T08:52:38;27.80;;;15.70;;
6007;SDS011;3032;49.484;11.112;2022-11-20T08:55:04;29.33;;;15.67;;
6007;SDS011;3032;49.484;11.112;2022-11-20T08:57:34;24.15;;;15.23;;
6007;SDS011;3032;49.484;11.112;2022-11-20T09:00:01;29.00;;;16.08;;
6007;SDS011;3032;49.484;11.112;2022-11-20T09:02:28;30.90;;;16.55;;
6007;SDS011;3032;49.484;11.112;2022-11-20T09:04:53;33.03;;;17.13;;
6007;SDS011;3032;49.484;11.112;2022-11-20T09:07:19;34.63;;;18.27;;
6007;SDS011;3032;49.484;11.112;2022-11-20T09:09:45;27.83;;;15.30;;
6007;SDS011;3032;49.484;11.112;2022-11-20T09:12:11;26.40;;;15.57;;
6007;SDS011;3032;49.484;11.112;2022-11-20T09:14:36;28.27;;;16.07;;
6007;SDS011;3032;49.484;11.112;2022-11-20T09:17:02;26.70;;;15.70;;
6007;SDS011;3032;49.484;11.112;2022-11-20T09:19:28;37.63;;;18.60;;
6007;SDS011;3032;49.484;11.112;2022-11-20T09:21:53;31.57;;;16.43;;
6007;SDS011;3032;49.484;11.112;2022-11-20T09:24:19;31.50;;;17.40;;
6007;SDS011;3032;49.484;11.112;2022-11-20T09:26:45;31.23;;;16.90;;
6007;SDS011;3032;49.484;11.112;2022-11-20T09:29:11;36.00;;;17.37;;
6007;SDS011;3032;49.484;11.112;2022-11-20T09:31:37;37.73;;;16.67;;
6007;SDS011;3032;49.484;11.112;2022-11-20T09:34:02;32.43;;;16.07;;
6007;SDS011;3032;49.484;11.112;2022-11-20T09:36:28;40.93;;;19.60;;
6007;SDS011;3032;49.484;11.112;2022-11-20T09:38:53;32.33;;;18.10;;
6007;SDS011;3032;49.484;11.112;2022-11-20T09:44:28;39.58;;;19.50;;
6007;SDS011;3032;49.484;11.112;2022-11-20T09:55:37;40.70;;;18.42;;
6007;SDS011;3032;49.484;11.112;2022-11-20T09:58:05;41.40;;;18.95;;
6007;SDS011;3032;49.484;11.112;2022-11-20T10:00:33;44.83;;;21.00;;
6007;SDS011;3032;49.484;11.112;2022-11-20T10:03:02;38.63;;;19.95;;
6007;SDS011;3032;49.484;11.112;2022-11-20T10:05:48;50.60;;;23.48;;
6007;SDS011;3032;49.484;11.112;2022-11-20T10:11:10;50.05;;;23.80;;
6007;SDS011;3032;49.484;11.112;2022-11-20T10:19:32;45.15;;;22.00;;
6007;SDS011;3032;49.484;11.112;2022-11-20T10:32:43;39.28;;;18.65;;
6007;SDS011;3032;49.484;11.112;2022-11-20T10:35:21;44.45;;;20.48;;
6007;SDS011;3032;49.484;11.112;2022-11-20T10:37:53;52.75;;;23.52;;
6007;SDS011;3032;49.484;11.112;2022-11-20T10:40:44;37.55;;;18.52;;
6007;SDS011;3032;49.484;11.112;2022-11-20T10:43:32;49.80;;;23.15;;
6007;SDS011;3032;49.484;11.112;2022-11-20T10:46:05;48.85;;;23.30;;
6007;SDS011;3032;49.484;11.112;2022-11-20T10:48:37;39.10;;;20.70;;
6007;SDS011;3032;49.484;11.112;2022-11-20T11:01:40;32.60;;;18.20;;
6007;SDS011;3032;49.484;11.112;2022-11-20T11:04:13;44.95;;;21.35;;
6007;SDS011;3032;49.484;11.112;2022-11-20T11:07:20;32.53;;;17.52;;
6007;SDS011;3032;49.484;11.112;2022-11-20T11:10:16;22.17;;;12.88;;
6007;SDS011;3032;49.484;11.112;2022-11-20T11:12:47;34.47;;;19.05;;
6007;SDS011;3032;49.484;11.112;2022-11-20T11:15:58;38.55;;;20.80;;
6007;SDS011;3032;49.484;11.112;2022-11-20T11:18:03;49.65;;;22.52;;
6007;SDS011;3032;49.484;11.112;2022-11-20T11:20:29;41.77;;;19.93;;
6007;SDS011;3032;49.484;11.112;2022-11-20T11:22:55;29.60;;;15.67;;
6007;SDS011;3032;49.484;11.112;2022-11-20T11:27:56;24.08;;;12.13;;
6007;SDS011;3032;49.484;11.112;2022-11-20T11:30:24;40.10;;;17.23;;
6007;SDS011;3032;49.484;11.112;2022-11-20T11:33:01;41.28;;;16.98;;
6007;SDS011;3032;49.484;11.112;2022-11-20T11:36:38;32.55;;;15.23;;
6007;SDS011;3032;49.484;11.112;2022-11-20T11:39:05;22.80;;;13.37;;
6007;SDS011;3032;49.484;11.112;2022-11-20T11:41:38;40.58;;;15.02;;
6007;SDS011;3032;49.484;11.112;2022-11-20T11:44:14;22.07;;;12.20;;
6007;SDS011;3032;49.484;11.112;2022-11-20T11:47:02;21.90;;;11.90;;
6007;SDS011;3032;49.484;11.112;2022-11-20T11:49:30;27.08;;;13.93;;
6007;SDS011;3032;49.484;11.112;2022-11-20T11:54:49;20.33;;;12.02;;
6007;SDS011;3032;49.484;11.112;2022-11-20T12:00:04;23.80;;;12.43;;
6007;SDS011;3032;49.484;11.112;2022-11-20T12:02:36;17.83;;;11.40;;
6007;SDS011;3032;49.484;11.112;2022-11-20T12:07:55;20.70;;;12.80;;
6007;SDS011;3032;49.484;11.112;2022-11-20T12:10:50;25.13;;;14.35;;
6007;SDS011;3032;49.484;11.112;2022-11-20T12:16:00;10.40;;;8.48;;
6007;SDS011;3032;49.484;11.112;2022-11-20T12:18:27;13.55;;;10.43;;
6007;SDS011;3032;49.484;11.112;2022-11-20T12:24:10;17.75;;;12.35;;
6007;SDS011;3032;49.484;11.112;2022-11-20T12:26:57;19.65;;;12.55;;
6007;SDS011;3032;49.484;11.112;2022-11-20T12:37:45;20.40;;;13.38;;
6007;SDS011;3032;49.484;11.112;2022-11-20T12:48:58;21.27;;;13.70;;
6007;SDS011;3032;49.484;11.112;2022-11-20T12:56:52;21.05;;;14.10;;
6007;SDS011;3032;49.484;11.112;2022-11-20T12:59:47;20.73;;;13.88;;
6007;SDS011;3032;49.484;11.112;2022-11-20T13:05:53;18.30;;;12.85;;
6007;SDS011;3032;49.484;11.112;2022-11-20T13:08:25;17.50;;;11.10;;
6007;SDS011;3032;49.484;11.112;2022-11-20T13:16:19;15.50;;;10.40;;
6007;SDS011;3032;49.484;11.112;2022-11-20T13:18:53;13.23;;;9.95;;
6007;SDS011;3032;49.484;11.112;2022-11-20T13:21:20;19.73;;;13.50;;
6007;SDS011;3032;49.484;11.112;2022-11-20T13:23:48;24.50;;;14.73;;
6007;SDS011;3032;49.484;11.112;2022-11-20T13:26:20;23.67;;;14.17;;
6007;SDS011;3032;49.484;11.112;2022-11-20T13:28:59;17.92;;;13.27;;
6007;SDS011;3032;49.484;11.112;2022-11-20T13:31:47;15.38;;;10.38;;
6007;SDS011;3032;49.484;11.112;2022-11-20T13:34:21;17.77;;;12.40;;
6007;SDS011;3032;49.484;11.112;2022-11-20T13:36:55;17.00;;;13.20;;
6007;SDS011;3032;49.484;11.112;2022-11-20T13:39:23;19.55;;;14.15;;
6007;SDS011;3032;49.484;11.112;2022-11-20T13:41:55;20.88;;;14.48;;
6007;SDS011;3032;49.484;11.112;2022-11-20T13:44:27;27.63;;;18.30;;
6007;SDS011;3032;49.484;11.112;2022-11-20T13:47:17;29.63;;;17.75;;
6007;SDS011;3032;49.484;11.112;2022-11-20T13:49:52;31.83;;;19.08;;
6007;SDS011;3032;49.484;11.112;2022-11-20T13:55:37;40.03;;;20.73;;
6007;SDS011;3032;49.484;11.112;2022-11-20T14:03:36;26.75;;;17.45;;
6007;SDS011;3032;49.484;11.112;2022-11-20T14:06:03;26.33;;;14.70;;
6007;SDS011;3032;49.484;11.112;2022-11-20T14:08:37;17.77;;;12.23;;
6007;SDS011;3032;49.484;11.112;2022-11-20T14:14:00;28.33;;;16.50;;
6007;SDS011;3032;49.484;11.112;2022-11-20T14:16:28;24.77;;;14.93;;
6007;SDS011;3032;49.484;11.112;2022-11-20T14:22:07;16.25;;;11.48;;
6007;SDS011;3032;49.484;11.112;2022-11-20T14:24:33;21.55;;;13.23;;
6007;SDS011;3032;49.484;11.112;2022-11-20T14:26:59;26.70;;;15.32;;
6007;SDS011;3032;49.484;11.112;2022-11-20T14:29:28;24.75;;;15.15;;
6007;SDS011;3032;49.484;11.112;2022-11-20T14:31:59;17.08;;;12.35;;
6007;SDS011;3032;49.484;11.112;2022-11-20T14:34:30;16.17;;;11.20;;
6007;SDS011;3032;49.484;11.112;2022-11-20T14:37:01;24.90;;;15.73;;
6007;SDS011;3032;49.484;11.112;2022-11-20T14:39:40;16.00;;;11.95;;
6007;SDS011;3032;49.484;11.112;2022-11-20T14:42:14;17.48;;;12.43;;
6007;SDS011;3032;49.484;11.112;2022-11-20T14:44:42;24.38;;;15.48;;
6007;SDS011;3032;49.484;11.112;2022-11-20T14:47:08;38.45;;;22.58;;
6007;SDS011;3032;49.484;11.112;2022-11-20T14:49:42;33.58;;;20.60;;
6007;SDS011;3032;49.484;11.112;2022-11-20T14:52:13;26.88;;;17.23;;
6007;SDS011;3032;49.484;11.112;2022-11-20T14:54:44;27.75;;;18.50;;
6007;SDS011;3032;49.484;11.112;2022-11-20T14:57:19;39.38;;;22.80;;
6007;SDS011;3032;49.484;11.112;2022-11-20T15:02:43;36.95;;;22.17;;
6007;SDS011;3032;49.484;11.112;2022-11-20T15:05:10;33.22;;;19.40;;
6007;SDS011;3032;49.484;11.112;2022-11-20T15:07:36;35.50;;;22.37;;
6007;SDS011;3032;49.484;11.112;2022-11-20T15:10:12;37.38;;;20.70;;
6007;SDS011;3032;49.484;11.112;2022-11-20T15:15:20;24.52;;;16.70;;
6007;SDS011;3032;49.484;11.112;2022-11-20T15:17:49;51.40;;;29.42;;
6007;SDS011;3032;49.484;11.112;2022-11-20T15:20:15;51.23;;;24.90;;
6007;SDS011;3032;49.484;11.112;2022-11-20T15:22:42;41.67;;;24.20;;
6007;SDS011;3032;49.484;11.112;2022-11-20T15:25:17;41.87;;;23.40;;
6007;SDS011;3032;49.484;11.112;2022-11-20T15:27:43;42.15;;;22.48;;
6007;SDS011;3032;49.484;11.112;2022-11-20T15:30:14;34.88;;;21.63;;
6007;SDS011;3032;49.484;11.112;2022-11-20T15:32:41;41.60;;;24.58;;
6007;SDS011;3032;49.484;11.112;2022-11-20T15:35:08;79.10;;;34.60;;
6007;SDS011;3032;49.484;11.112;2022-11-20T15:37:34;48.42;;;23.10;;
6007;SDS011;3032;49.484;11.112;2022-11-20T15:40:01;61.25;;;27.95;;
6007;SDS011;3032;49.484;11.112;2022-11-20T15:42:26;39.17;;;23.67;;
6007;SDS011;3032;49.484;11.112;2022-11-20T15:44:52;35.87;;;22.63;;
6007;SDS011;3032;49.484;11.112;2022-11-20T15:47:18;48.93;;;25.97;;
6007;SDS011;3032;49.484;11.112;2022-11-20T15:49:45;36.90;;;21.10;;
6007;SDS011;3032;49.484;11.112;2022-11-20T15:52:11;24.77;;;17.73;;
6007;SDS011;3032;49.484;11.112;2022-11-20T15:54:38;24.83;;;16.60;;
6007;SDS011;3032;49.484;11.112;2022-11-20T15:57:03;45.23;;;25.13;;
6007;SDS011;3032;49.484;11.112;2022-11-20T15:59:29;46.63;;;24.50;;
6007;SDS011;3032;49.484;11.112;2022-11-20T16:01:54;37.67;;;20.47;;
6007;SDS011;3032;49.484;11.112;2022-11-20T16:04:20;26.50;;;16.43;;
6007;SDS011;3032;49.484;11.112;2022-11-20T16:06:45;28.80;;;16.53;;
6007;SDS011;3032;49.484;11.112;2022-11-20T16:09:11;32.67;;;19.83;;
6007;SDS011;3032;49.484;11.112;2022-11-20T16:11:36;40.60;;;23.37;;
6007;SDS011;3032;49.484;11.112;2022-11-20T16:14:03;46.63;;;25.57;;
6007;SDS011;3032;49.484;11.112;2022-11-20T16:16:47;37.67;;;20.95;;
6007;SDS011;3032;49.484;11.112;2022-11-20T16:19:13;41.47;;;21.17;;
6007;SDS011;3032;49.484;11.112;2022-11-20T16:21:40;34.75;;;21.10;;
6007;SDS011;3032;49.484;11.112;2022-11-20T16:24:07;38.00;;;24.35;;
6007;SDS011;3032;49.484;11.112;2022-11-20T16:26:34;67.10;;;36.70;;
6007;SDS011;3032;49.484;11.112;2022-11-20T16:29:00;53.80;;;31.65;;
6007;SDS011;3032;49.484;11.112;2022-11-20T16:31:27;33.83;;;22.50;;
6007;SDS011;3032;49.484;11.112;2022-11-20T16:33:57;40.17;;;24.27;;
6007;SDS011;3032;49.484;11.112;2022-11-20T16:36:25;37.25;;;23.45;;
6007;SDS011;3032;49.484;11.112;2022-11-20T16:38:58;75.70;;;33.45;;
6007;SDS011;3032;49.484;11.112;2022-11-20T16:41:26;70.80;;;31.75;;
6007;SDS011;3032;49.484;11.112;2022-11-20T16:43:53;54.85;;;24.80;;